Time;durP1;ratioP1;P1;durP2;ratioP2;P2;SDS_P1;SDS_P2;PMS_P1;PMS_P2;Temp;Humidity;BMP_temperature;BMP_pressure;BME280_temperature;BME280_humidity;BME280_pressure;Samples;Min_cycle;Max_cycle;Signal;HPM_P1;HPM_P2
2023/10/10 00:02:39;;;;;;;16.23;5.55;;;14.80;99.90;;;;;;4975493;28;20101;-73
2023/10/10 00:05:36;;;;;;;13.73;4.95;;;14.90;99.90;;;;;;4962827;28;20092;-73
2023/10/10 00:08:28;;;;;;;9.50;4.97;;;14.90;99.90;;;;;;4962932;28;20391;-73
2023/10/10 00:11:15;;;;;;;11.65;4.82;;;14.90;99.90;;;;;;4963660;28;20530;-73
2023/10/10 00:14:07;;;;;;;11.90;5.07;;;14.80;99.90;;;;;;4976978;28;20058;-73
2023/10/10 00:16:56;;;;;;;16.60;6.53;;;14.80;99.90;;;;;;4975709;28;20113;-77
2023/10/10 00:19:51;;;;;;;12.73;5.43;;;14.80;99.90;;;;;;4976072;28;20479;-73
2023/10/10 00:22:37;;;;;;;12.00;5.10;;;14.80;99.90;;;;;;4977466;28;20058;-74
2023/10/10 00:25:28;;;;;;;11.32;6.18;;;14.80;99.90;;;;;;4976823;28;20503;-77
2023/10/10 00:28:21;;;;;;;13.30;5.45;;;14.90;99.90;;;;;;4975998;28;20057;-73
2023/10/10 00:31:17;;;;;;;11.82;5.15;;;14.80;99.90;;;;;;4976832;28;20058;-74
2023/10/10 00:34:07;;;;;;;10.98;5.07;;;14.80;99.90;;;;;;4975975;28;20050;-73
2023/10/10 00:36:53;;;;;;;11.15;5.38;;;14.80;99.90;;;;;;4963031;28;20134;-72
2023/10/10 00:39:39;;;;;;;13.90;6.00;;;14.80;99.90;;;;;;4993672;28;20050;-73
2023/10/10 00:42:40;;;;;;;9.90;5.80;;;14.80;99.90;;;;;;4976532;28;20058;-72
2023/10/10 00:45:33;;;;;;;12.63;5.88;;;14.80;99.90;;;;;;4975316;28;20442;-75
2023/10/10 00:48:24;;;;;;;14.02;5.85;;;14.80;99.90;;;;;;4975220;28;20152;-72
2023/10/10 00:51:20;;;;;;;14.77;6.10;;;14.80;99.90;;;;;;4976525;28;20081;-74
2023/10/10 00:54:43;;;;;;;10.93;5.82;;;14.70;99.90;;;;;;4993752;28;20065;-73
2023/10/10 00:57:20;;;;;;;11.48;5.90;;;14.70;99.90;;;;;;4992914;28;20508;-74
2023/10/10 01:00:15;;;;;;;11.98;4.95;;;14.70;99.90;;;;;;4993513;28;20042;-73
2023/10/10 01:03:19;;;;;;;11.00;4.82;;;14.60;99.90;;;;;;4975827;28;20459;-74
2023/10/10 01:06:13;;;;;;;12.98;5.78;;;14.60;99.90;;;;;;4992999;28;20049;-73
2023/10/10 01:09:20;;;;;;;12.68;6.10;;;14.60;99.90;;;;;;4976710;28;20425;-73
2023/10/10 01:12:06;;;;;;;14.25;6.07;;;14.50;99.90;;;;;;4975726;28;20046;-73
2023/10/10 01:14:55;;;;;;;10.18;5.10;;;14.50;99.90;;;;;;4976424;28;20046;-73
2023/10/10 01:17:43;;;;;;;16.35;6.18;;;14.50;99.90;;;;;;4975376;28;20117;-72
2023/10/10 01:20:37;;;;;;;16.20;5.85;;;14.50;99.90;;;;;;4975816;28;20120;-74
2023/10/10 01:23:28;;;;;;;12.18;5.18;;;14.40;99.90;;;;;;4992715;28;20046;-73
2023/10/10 01:26:16;;;;;;;9.52;5.00;;;14.40;99.90;;;;;;4975552;28;20108;-73
2023/10/10 01:32:11;;;;;;;13.45;5.80;;;14.30;99.90;;;;;;4954146;28;20066;-74
2023/10/10 01:34:57;;;;;;;11.93;5.55;;;14.40;99.90;;;;;;4993040;28;20053;-75
2023/10/10 01:37:54;;;;;;;16.38;5.25;;;14.40;99.90;;;;;;4992977;28;20046;-73
2023/10/10 01:40:40;;;;;;;13.88;5.47;;;14.30;99.90;;;;;;4974631;28;20132;-76
2023/10/10 01:43:28;;;;;;;12.57;6.00;;;14.40;99.90;;;;;;4975161;28;20058;-74
2023/10/10 01:46:29;;;;;;;16.70;6.60;;;14.40;99.90;;;;;;4961816;28;20392;-73
2023/10/10 01:49:21;;;;;;;12.30;6.13;;;14.40;99.90;;;;;;4975209;28;20104;-75
2023/10/10 01:52:12;;;;;;;12.55;6.07;;;14.40;99.90;;;;;;4974243;28;20148;-73
2023/10/10 01:55:00;;;;;;;10.32;5.78;;;14.50;99.90;;;;;;4975634;28;20058;-72
2023/10/10 01:57:47;;;;;;;14.23;6.13;;;14.50;99.90;;;;;;4974843;28;20058;-73
2023/10/10 02:00:34;;;;;;;13.73;6.78;;;14.50;99.90;;;;;;4975080;28;20104;-75
2023/10/10 02:03:21;;;;;;;13.50;6.70;;;14.60;99.90;;;;;;4975195;28;20062;-72
2023/10/10 02:06:13;;;;;;;18.13;6.93;;;14.60;99.90;;;;;;4960113;28;20506;-74
2023/10/10 02:09:11;;;;;;;13.25;6.50;;;14.60;99.90;;;;;;4990613;28;20150;-77
2023/10/10 02:12:07;;;;;;;17.02;6.25;;;14.60;99.90;;;;;;4975044;28;20061;-73
2023/10/10 02:14:54;;;;;;;12.15;6.78;;;14.60;99.90;;;;;;4974394;28;20057;-82
2023/10/10 02:17:42;;;;;;;18.45;7.60;;;14.50;99.90;;;;;;4991472;28;20112;-73
2023/10/10 02:23:33;;;;;;;17.70;7.22;;;14.50;99.90;;;;;;4974703;28;20125;-82
2023/10/10 02:26:35;;;;;;;14.93;6.32;;;14.50;99.90;;;;;;4973023;28;20072;-74
2023/10/10 02:29:34;;;;;;;13.75;6.90;;;14.50;99.90;;;;;;4960274;28;20062;-76
2023/10/10 02:32:21;;;;;;;13.65;7.22;;;14.40;99.90;;;;;;4975375;28;20046;-72
2023/10/10 02:35:26;;;;;;;12.75;7.43;;;14.40;99.90;;;;;;4992439;28;20042;-75
2023/10/10 02:38:12;;;;;;;11.93;6.35;;;14.40;99.90;;;;;;4974319;28;20494;-73
2023/10/10 02:41:25;;;;;;;16.63;8.10;;;14.30;99.90;;;;;;4974359;28;20050;-73
2023/10/10 02:44:11;;;;;;;16.95;8.23;;;14.30;99.90;;;;;;4974861;28;20046;-73
2023/10/10 02:46:57;;;;;;;21.42;10.30;;;14.30;99.90;;;;;;4975281;28;20495;-73
2023/10/10 02:49:44;;;;;;;17.70;7.88;;;14.30;99.90;;;;;;4975052;28;20058;-72
2023/10/10 02:52:30;;;;;;;17.88;8.68;;;14.30;99.90;;;;;;4960831;28;20050;-72
2023/10/10 02:55:22;;;;;;;16.92;8.80;;;14.30;99.90;;;;;;4959842;28;20054;-72
2023/10/10 02:58:21;;;;;;;20.25;9.02;;;14.20;99.90;;;;;;4974313;28;20525;-73
2023/10/10 03:01:19;;;;;;;21.90;10.30;;;14.20;99.90;;;;;;4991894;28;20054;-72
2023/10/10 03:04:08;;;;;;;19.15;8.75;;;14.20;99.90;;;;;;4974226;28;20128;-73
2023/10/10 03:06:54;;;;;;;16.60;8.60;;;14.30;99.90;;;;;;4989953;28;20503;-72
2023/10/10 03:10:07;;;;;;;20.27;10.90;;;14.30;99.90;;;;;;4973882;28;20140;-72
2023/10/10 03:12:49;;;;;;;23.38;11.50;;;14.30;99.90;;;;;;4991815;28;20153;-73
2023/10/10 03:15:37;;;;;;;23.27;10.32;;;14.40;99.90;;;;;;4973854;28;20054;-73
2023/10/10 03:18:29;;;;;;;16.05;8.75;;;14.40;99.90;;;;;;4974284;28;20050;-82
2023/10/10 03:21:24;;;;;;;24.85;9.88;;;14.50;99.90;;;;;;4991296;28;20104;-73
2023/10/10 03:36:31;;;;;;;17.30;9.15;;;14.50;99.90;;;;;;4992269;28;20050;-82
2023/10/10 03:39:41;;;;;;;20.85;10.20;;;14.60;99.90;;;;;;4963034;28;20093;-72
2023/10/10 05:24:00;;;;;;;20.70;10.35;;;15.00;99.90;;;;;;4956635;28;20062;-80
2023/10/10 05:26:47;;;;;;;21.58;11.55;;;15.00;99.90;;;;;;4957155;28;20094;-72
2023/10/10 05:29:33;;;;;;;25.90;13.23;;;14.90;99.90;;;;;;4956411;28;20063;-73
2023/10/10 05:32:22;;;;;;;23.70;12.48;;;15.00;99.90;;;;;;4957218;28;20061;-82
2023/10/10 05:35:11;;;;;;;32.15;15.00;;;15.00;99.90;;;;;;4956936;28;20062;-74
2023/10/10 05:37:57;;;;;;;26.23;12.45;;;15.00;99.90;;;;;;4943439;28;20057;-73
2023/10/10 05:40:43;;;;;;;32.45;14.60;;;14.90;99.90;;;;;;4957063;28;20138;-73
2023/10/10 05:43:33;;;;;;;28.90;13.95;;;14.90;99.90;;;;;;4956570;28;20059;-86
2023/10/10 05:46:19;;;;;;;33.72;14.45;;;14.90;99.90;;;;;;4957179;28;20158;-81
2023/10/10 05:49:06;;;;;;;33.85;16.75;;;14.90;99.90;;;;;;4956189;28;20093;-73
2023/10/10 05:51:52;;;;;;;40.13;16.40;;;14.90;99.90;;;;;;4955784;28;20509;-77
2023/10/10 05:54:38;;;;;;;32.35;15.68;;;14.80;99.90;;;;;;4973642;28;20419;-75
2023/10/10 05:57:24;;;;;;;39.17;18.15;;;14.80;99.90;;;;;;4955511;28;20059;-73
2023/10/10 06:00:11;;;;;;;41.83;16.63;;;14.80;99.90;;;;;;4956014;28;20062;-72
2023/10/10 06:02:57;;;;;;;43.83;19.55;;;14.80;99.90;;;;;;4955932;28;20105;-75
2023/10/10 06:05:49;;;;;;;42.00;20.42;;;14.80;99.90;;;;;;4955424;28;20055;-78
2023/10/10 06:08:36;;;;;;;47.70;21.83;;;14.80;99.90;;;;;;4956158;28;20086;-74
2023/10/10 06:11:22;;;;;;;49.92;21.35;;;14.80;99.90;;;;;;4942880;28;20489;-74
2023/10/10 06:14:08;;;;;;;46.85;22.15;;;14.80;99.90;;;;;;4973006;28;20133;-75
2023/10/10 06:16:55;;;;;;;52.22;21.58;;;14.80;99.90;;;;;;4957060;28;20066;-80
2023/10/10 06:19:45;;;;;;;49.38;22.27;;;14.80;99.90;;;;;;4973533;28;20046;-72
2023/10/10 06:22:31;;;;;;;58.95;24.00;;;14.80;99.90;;;;;;4993239;28;20068;-74
2023/10/10 06:25:17;;;;;;;53.33;22.63;;;14.80;99.90;;;;;;4975483;28;20062;-73
2023/10/10 06:28:22;;;;;;;53.22;23.58;;;14.80;99.90;;;;;;4974230;28;20133;-80
2023/10/10 06:31:10;;;;;;;47.30;22.15;;;14.80;99.90;;;;;;4974818;28;20502;-79
2023/10/10 06:33:57;;;;;;;55.63;24.98;;;14.90;99.90;;;;;;4974542;28;20057;-76
2023/10/10 06:36:47;;;;;;;57.97;25.65;;;14.90;99.90;;;;;;4974381;28;20116;-81
2023/10/10 06:39:54;;;;;;;63.95;26.90;;;15.00;99.90;;;;;;4974905;28;20522;-78
2023/10/10 06:42:46;;;;;;;63.90;27.20;;;15.10;99.90;;;;;;4974215;28;20090;-82
2023/10/10 06:45:37;;;;;;;58.92;25.20;;;15.10;99.90;;;;;;4961455;28;20057;-75
2023/10/10 06:48:24;;;;;;;61.20;27.15;;;15.10;99.90;;;;;;4992272;28;20066;-76
2023/10/10 06:51:10;;;;;;;66.38;28.20;;;15.10;99.90;;;;;;4975349;28;20061;-78
2023/10/10 06:53:56;;;;;;;64.07;27.27;;;15.10;99.90;;;;;;4975369;28;20050;-75
2023/10/10 06:56:45;;;;;;;59.83;27.48;;;15.10;99.90;;;;;;4974865;28;20059;-75
2023/10/10 06:59:32;;;;;;;64.10;28.58;;;15.20;99.90;;;;;;4992629;28;20060;-74
2023/10/10 07:02:21;;;;;;;73.57;29.52;;;15.20;99.90;;;;;;4976642;28;20124;-72
2023/10/10 07:05:15;;;;;;;62.15;27.50;;;15.20;99.90;;;;;;4963383;28;20495;-73
2023/10/10 07:08:19;;;;;;;66.50;27.83;;;15.30;99.90;;;;;;4977288;28;20090;-73
2023/10/10 07:11:05;;;;;;;57.10;27.08;;;15.40;99.90;;;;;;4966945;28;20058;-84
2023/10/10 07:13:59;;;;;;;70.80;26.77;;;15.40;99.90;;;;;;4980879;28;20101;-72
2023/10/10 07:16:45;;;;;;;56.45;26.05;;;15.50;99.90;;;;;;4980460;28;20093;-72
2023/10/10 07:19:31;;;;;;;57.15;26.10;;;15.50;99.90;;;;;;4980165;28;20054;-72
2023/10/10 07:22:17;;;;;;;56.97;27.38;;;15.50;99.90;;;;;;4998655;28;20478;-73
2023/10/10 07:25:07;;;;;;;60.55;26.08;;;15.60;99.90;;;;;;4966139;28;20050;-73
2023/10/10 07:27:54;;;;;;;51.10;24.63;;;15.60;99.90;;;;;;4980395;28;20086;-72
2023/10/10 07:30:47;;;;;;;63.33;29.15;;;15.60;99.90;;;;;;4998073;28;20058;-72
2023/10/10 07:33:40;;;;;;;52.65;27.98;;;15.60;99.90;;;;;;4980491;28;20058;-72
2023/10/10 07:36:27;;;;;;;58.55;29.48;;;15.60;99.90;;;;;;4997354;28;20104;-73
2023/10/10 07:39:32;;;;;;;59.58;29.67;;;15.80;99.90;;;;;;4997400;28;20053;-81
2023/10/10 07:42:27;;;;;;;57.20;29.60;;;15.80;99.90;;;;;;4979411;28;20120;-73
2023/10/10 07:45:13;;;;;;;55.53;29.15;;;15.90;99.90;;;;;;4980514;28;20102;-75
2023/10/10 07:50:47;;;;;;;57.13;30.77;;;16.00;99.90;;;;;;4980382;28;20054;-73
2023/10/10 07:53:42;;;;;;;62.28;31.75;;;16.10;99.90;;;;;;4980219;28;20137;-73
2023/10/10 07:56:32;;;;;;;51.33;29.23;;;16.20;99.90;;;;;;4997625;28;20057;-73
2023/10/10 07:59:18;;;;;;;53.33;29.38;;;16.30;99.90;;;;;;4980060;28;20454;-73
2023/10/10 08:02:19;;;;;;;54.33;31.73;;;16.30;99.90;;;;;;4997606;28;20050;-73
2023/10/10 08:05:10;;;;;;;53.03;28.95;;;16.30;99.90;;;;;;4980803;28;20050;-74
2023/10/10 08:07:56;;;;;;;50.70;27.45;;;16.40;99.90;;;;;;4980094;28;20054;-76
2023/10/10 08:10:46;;;;;;;49.00;27.45;;;16.50;99.90;;;;;;4997249;28;20057;-73
2023/10/10 08:13:32;;;;;;;46.05;26.10;;;16.50;99.90;;;;;;4997445;28;20086;-73
2023/10/10 08:16:21;;;;;;;43.72;26.00;;;16.60;99.90;;;;;;4997389;28;20572;-73
2023/10/10 08:19:08;;;;;;;50.50;25.50;;;16.60;99.90;;;;;;4996731;28;20051;-72
2023/10/10 08:21:54;;;;;;;49.55;27.33;;;16.70;99.90;;;;;;4996473;28;20140;-75
2023/10/10 08:24:43;;;;;;;45.85;25.98;;;16.70;99.90;;;;;;4994680;28;20050;-72
2023/10/10 08:27:30;;;;;;;49.22;25.63;;;16.80;99.90;;;;;;4977668;28;20173;-71
2023/10/10 08:30:16;;;;;;;40.90;24.02;;;16.90;99.90;;;;;;4963364;28;20051;-72
2023/10/10 08:33:02;;;;;;;38.97;23.35;;;17.00;99.90;;;;;;4977530;28;20379;-72
2023/10/10 08:35:48;;;;;;;46.60;25.13;;;17.00;99.90;;;;;;4976789;28;20054;-72
2023/10/10 08:38:41;;;;;;;38.58;22.73;;;17.10;99.90;;;;;;4976803;28;20050;-73
2023/10/10 08:41:31;;;;;;;40.00;23.20;;;17.20;99.90;;;;;;4994894;28;20054;-73
2023/10/10 08:44:18;;;;;;;43.70;22.70;;;17.30;99.90;;;;;;4976080;28;20104;-74
2023/10/10 08:47:19;;;;;;;39.63;23.92;;;17.30;99.90;;;;;;4994374;28;20046;-74
2023/10/10 08:50:06;;;;;;;37.30;21.70;;;17.40;99.90;;;;;;4993811;28;20054;-77
2023/10/10 08:52:52;;;;;;;37.33;23.25;;;17.40;99.90;;;;;;4976461;28;20050;-89
2023/10/10 08:55:40;;;;;;;37.10;21.98;;;17.40;99.90;;;;;;4975956;28;20188;-73
2023/10/10 08:58:28;;;;;;;41.88;23.30;;;17.40;99.90;;;;;;4976467;28;20113;-73
2023/10/10 09:01:14;;;;;;;36.10;24.02;;;17.40;99.90;;;;;;4993464;28;20565;-79
2023/10/10 09:04:05;;;;;;;41.53;24.08;;;17.50;99.90;;;;;;4993556;28;20054;-75
2023/10/10 09:06:58;;;;;;;38.33;23.20;;;17.50;99.90;;;;;;4976182;28;20092;-76
2023/10/10 09:09:54;;;;;;;41.88;24.02;;;17.50;99.90;;;;;;4976003;28;20529;-80
2023/10/10 09:12:52;;;;;;;42.05;24.08;;;17.60;99.90;;;;;;4976090;28;20061;-75
2023/10/10 09:15:54;;;;;;;39.55;23.52;;;17.70;99.90;;;;;;4976299;28;20054;-73
2023/10/10 09:18:40;;;;;;;45.55;24.42;;;17.80;99.90;;;;;;4975655;28;20531;-80
2023/10/10 09:21:28;;;;;;;43.45;24.38;;;17.80;99.90;;;;;;4975929;28;20065;-73
2023/10/10 09:24:35;;;;;;;51.85;25.75;;;17.90;99.90;;;;;;4975682;28;20514;-73
2023/10/10 09:27:27;;;;;;;40.67;24.45;;;18.00;99.90;;;;;;4975459;28;20069;-73
2023/10/10 09:30:15;;;;;;;44.40;25.52;;;18.00;99.90;;;;;;4975903;28;20058;-74
2023/10/10 09:36:26;;;;;;;37.05;22.63;;;18.20;99.90;;;;;;4951595;28;20061;-73
2023/10/10 09:39:26;;;;;;;46.53;25.67;;;18.30;99.90;;;;;;4975688;28;20570;-78
2023/10/10 09:42:44;;;;;;;38.28;23.63;;;18.30;99.90;;;;;;4975791;28;20082;-76
2023/10/10 09:45:55;;;;;;;41.22;26.27;;;18.30;99.90;;;;;;4974639;28;20521;-73
2023/10/10 09:54:49;;;;;;;40.85;24.60;;;18.50;99.90;;;;;;4975701;28;20411;-74
2023/10/10 09:57:42;;;;;;;40.58;24.27;;;18.60;99.90;;;;;;4961806;28;20120;-72
2023/10/10 10:00:45;;;;;;;45.15;24.95;;;18.60;99.90;;;;;;4975333;28;20055;-78
2023/10/10 10:03:42;;;;;;;43.33;24.92;;;18.80;99.90;;;;;;4961865;28;20557;-71
2023/10/10 10:06:37;;;;;;;39.72;23.65;;;18.80;99.90;;;;;;4975175;28;20046;-72
2023/10/10 10:09:31;;;;;;;38.40;22.75;;;19.00;99.90;;;;;;4961769;28;20068;-74
2023/10/10 10:12:33;;;;;;;39.20;24.38;;;19.00;99.90;;;;;;4975707;28;20050;-74
2023/10/10 10:15:58;;;;;;;41.22;23.70;;;19.10;99.90;;;;;;4992466;28;20050;-76
2023/10/10 10:19:11;;;;;;;41.75;24.33;;;19.20;99.90;;;;;;4992257;28;20189;-72
2023/10/10 10:25:21;;;;;;;41.40;24.73;;;19.40;99.90;;;;;;4974028;28;20559;-73
2023/10/10 10:28:11;;;;;;;40.65;24.20;;;19.60;99.90;;;;;;4962579;28;20051;-73
2023/10/10 10:31:02;;;;;;;40.55;23.15;;;19.80;99.90;;;;;;4973472;28;20137;-73
2023/10/10 10:34:06;;;;;;;42.47;25.23;;;20.00;99.90;;;;;;4974074;28;20153;-73
2023/10/10 10:37:06;;;;;;;40.95;24.35;;;20.10;99.90;;;;;;4974621;28;20062;-73
2023/10/10 10:43:00;;;;;;;;;;;20.40;99.90;;;;;;4974881;28;20228;-75
2023/10/10 10:45:52;;;;;;;39.42;22.50;;;20.40;99.90;;;;;;4990685;28;20363;-72
2023/10/10 10:48:40;;;;;;;37.17;22.17;;;20.60;99.90;;;;;;4961785;28;20054;-73
2023/10/10 10:51:41;;;;;;;38.97;23.23;;;20.60;99.90;;;;;;4974735;28;20058;-73
2023/10/10 10:54:37;;;;;;;39.33;22.83;;;20.50;99.90;;;;;;4973481;28;20148;-74
2023/10/10 10:57:38;;;;;;;37.00;22.60;;;20.50;99.90;;;;;;4974848;28;20050;-72
2023/10/10 11:00:56;;;;;;;40.13;23.83;;;20.30;99.90;;;;;;4976266;28;20057;-73
2023/10/10 11:03:44;;;;;;;39.55;23.83;;;20.40;99.90;;;;;;4962230;28;20148;-73
2023/10/10 11:06:30;;;;;;;41.40;22.73;;;20.20;99.90;;;;;;4960114;28;20161;-76
2023/10/10 11:09:30;;;;;;;44.45;23.02;;;20.20;99.90;;;;;;4974247;28;20057;-78
2023/10/10 11:12:31;;;;;;;36.78;21.83;;;20.30;99.90;;;;;;4974193;28;20066;-72
2023/10/10 11:15:17;;;;;;;40.70;23.00;;;20.30;99.90;;;;;;4959224;28;20065;-77
2023/10/10 11:18:08;;;;;;;39.17;22.77;;;20.50;99.90;;;;;;4949596;28;20065;-80
2023/10/10 11:21:06;;;;;;;44.40;24.00;;;20.90;99.90;;;;;;4954374;28;20392;-74
2023/10/10 11:23:57;;;;;;;38.28;20.88;;;21.60;99.90;;;;;;4955419;28;20057;-73
2023/10/10 11:26:46;;;;;;;37.80;20.77;;;22.30;99.90;;;;;;4955029;28;20055;-73
2023/10/10 11:29:46;;;;;;;33.65;21.48;;;22.80;99.90;;;;;;4954579;28;20105;-73
2023/10/10 11:32:46;;;;;;;37.63;21.70;;;22.70;99.90;;;;;;4954878;28;20492;-74
2023/10/10 11:35:46;;;;;;;36.20;19.17;;;22.30;99.90;;;;;;4971908;28;20051;-76
2023/10/10 11:38:36;;;;;;;32.40;19.67;;;22.30;99.90;;;;;;4955365;28;20509;-74
2023/10/10 11:41:35;;;;;;;39.85;21.30;;;22.40;99.90;;;;;;4959097;28;20404;-72
2023/10/10 11:44:21;;;;;;;31.00;19.05;;;22.80;99.90;;;;;;4942228;28;20051;-76
2023/10/10 11:47:21;;;;;;;34.63;21.77;;;23.70;99.90;;;;;;4955335;28;20463;-74
2023/10/10 11:50:17;;;;;;;39.28;21.15;;;23.70;99.90;;;;;;4942358;28;20043;-72
2023/10/10 11:53:05;;;;;;;32.70;19.65;;;23.30;99.90;;;;;;4955249;28;20618;-74
2023/10/10 11:55:55;;;;;;;31.73;17.95;;;23.40;99.90;;;;;;4954327;28;20077;-73
2023/10/10 11:58:41;;;;;;;30.02;18.00;;;24.50;99.90;;;;;;4958836;28;20047;-76
2023/10/10 12:04:31;;;;;;;31.13;18.47;;;25.40;99.90;;;;;;4958015;28;20518;-74
2023/10/10 12:07:18;;;;;;;32.20;18.52;;;25.60;99.90;;;;;;4958697;28;20302;-73
2023/10/10 12:10:12;;;;;;;32.40;17.92;;;25.80;99.90;;;;;;4961882;28;20058;-74
2023/10/10 12:13:09;;;;;;;30.63;18.08;;;26.20;99.90;;;;;;4958077;28;20503;-75
2023/10/10 12:15:59;;;;;;;28.13;15.63;;;27.30;99.90;;;;;;4957295;28;20055;-78
2023/10/10 12:18:52;;;;;;;30.75;16.83;;;27.90;99.90;;;;;;4957149;28;20101;-78
2023/10/10 12:21:38;;;;;;;28.45;15.00;;;27.50;99.80;;;;;;4958398;28;20050;-75
2023/10/10 12:24:24;;;;;;;33.22;17.17;;;27.00;99.90;;;;;;4957430;28;20069;-79
2023/10/10 12:27:10;;;;;;;31.80;17.30;;;26.20;99.90;;;;;;4957314;28;20059;-75
2023/10/10 12:29:57;;;;;;;25.35;15.75;;;25.50;99.90;;;;;;4958499;28;20141;-81
2023/10/10 12:32:43;;;;;;;31.58;16.55;;;24.70;99.90;;;;;;4958235;28;20062;-76
2023/10/10 12:35:42;;;;;;;28.77;17.65;;;24.40;99.90;;;;;;4956976;28;20530;-76
2023/10/10 12:38:32;;;;;;;31.45;16.73;;;24.30;99.90;;;;;;4956932;28;20059;-74
2023/10/10 12:41:21;;;;;;;29.30;15.65;;;24.50;99.90;;;;;;4957858;28;20051;-74
2023/10/10 12:44:07;;;;;;;32.97;17.92;;;24.00;99.90;;;;;;4957898;28;20090;-75
2023/10/10 12:46:54;;;;;;;28.67;15.02;;;23.90;99.90;;;;;;4957324;28;20407;-74
2023/10/10 12:49:44;;;;;;;27.67;14.43;;;23.70;99.90;;;;;;4957225;28;20419;-74
2023/10/10 12:52:45;;;;;;;31.13;16.42;;;23.70;99.90;;;;;;4957587;28;20150;-73
2023/10/10 12:55:31;;;;;;;30.05;15.80;;;23.50;99.90;;;;;;4962260;28;20097;-73
2023/10/10 12:58:21;;;;;;;29.33;15.40;;;23.20;99.90;;;;;;4956248;28;20051;-73
2023/10/10 13:01:07;;;;;;;27.42;15.15;;;23.40;99.90;;;;;;4944311;28;20403;-73
2023/10/10 13:03:53;;;;;;;26.63;14.93;;;23.40;99.90;;;;;;4944192;28;20050;-75
2023/10/10 13:06:39;;;;;;;29.05;14.80;;;23.30;99.90;;;;;;4957549;28;20054;-73
2023/10/10 13:09:27;;;;;;;27.15;15.13;;;22.90;99.90;;;;;;4959676;28;20055;-74
2023/10/10 13:12:27;;;;;;;24.13;14.82;;;22.70;99.90;;;;;;4957736;28;20059;-76
2023/10/10 13:15:19;;;;;;;28.65;15.57;;;22.50;99.90;;;;;;4957021;28;20055;-74
2023/10/10 13:18:20;;;;;;;27.33;14.90;;;22.40;99.90;;;;;;4956849;28;20113;-77
2023/10/10 13:21:07;;;;;;;30.05;15.95;;;22.20;99.90;;;;;;4957102;28;20395;-73
2023/10/10 13:23:53;;;;;;;31.75;16.70;;;22.00;99.90;;;;;;4957180;28;20058;-76
2023/10/10 13:26:41;;;;;;;33.33;17.67;;;21.90;99.90;;;;;;4956835;28;20058;-74
2023/10/10 13:29:27;;;;;;;33.40;17.98;;;21.60;99.90;;;;;;4956030;28;20412;-73
2023/10/10 13:32:13;;;;;;;27.30;16.52;;;21.50;99.90;;;;;;4956563;28;20058;-73
2023/10/10 13:35:00;;;;;;;31.92;17.25;;;21.50;99.90;;;;;;4956018;28;20054;-74
2023/10/10 13:37:46;;;;;;;34.15;17.73;;;21.50;99.90;;;;;;4956835;28;20047;-74
2023/10/10 13:40:37;;;;;;;28.10;17.05;;;21.40;99.90;;;;;;4956796;28;20488;-73
2023/10/10 13:43:23;;;;;;;33.63;17.50;;;21.60;99.90;;;;;;4956494;28;20117;-74
2023/10/10 13:46:09;;;;;;;29.80;18.00;;;21.80;99.90;;;;;;4956677;28;20515;-74
2023/10/10 13:48:55;;;;;;;32.92;18.67;;;21.70;99.90;;;;;;4942605;28;20483;-74
2023/10/10 13:51:41;;;;;;;33.63;20.10;;;21.60;99.90;;;;;;4956360;28;20055;-73
2023/10/10 13:54:28;;;;;;;34.90;19.85;;;21.40;99.90;;;;;;4955708;28;20499;-73
2023/10/10 13:57:14;;;;;;;35.00;20.92;;;21.30;99.90;;;;;;4956464;28;20133;-76
2023/10/10 14:00:00;;;;;;;35.00;21.83;;;21.20;99.90;;;;;;4955975;28;20054;-78
2023/10/10 14:02:46;;;;;;;37.17;19.83;;;21.00;99.90;;;;;;4956420;28;20058;-74
2023/10/10 14:05:37;;;;;;;36.92;20.98;;;21.00;99.90;;;;;;4955266;28;20058;-74
2023/10/10 14:08:23;;;;;;;31.90;18.88;;;20.90;99.90;;;;;;4955647;28;20137;-75
2023/10/10 14:11:09;;;;;;;33.78;20.67;;;20.90;99.90;;;;;;4973219;28;20077;-76
2023/10/10 14:13:55;;;;;;;34.15;21.48;;;20.80;99.90;;;;;;4955601;28;20523;-75
2023/10/10 14:16:41;;;;;;;35.08;21.13;;;20.90;99.90;;;;;;4954977;28;20047;-74
2023/10/10 14:19:27;;;;;;;36.78;20.75;;;20.90;99.90;;;;;;4972693;28;20054;-78
2023/10/10 14:22:19;;;;;;;35.35;20.95;;;20.80;99.90;;;;;;4954598;28;20089;-77
2023/10/10 14:25:12;;;;;;;38.45;22.20;;;20.70;99.90;;;;;;4973247;28;20086;-73
2023/10/10 14:27:58;;;;;;;40.17;23.83;;;20.60;99.90;;;;;;4972688;28;20054;-74
2023/10/10 14:30:50;;;;;;;39.45;22.30;;;20.50;99.90;;;;;;4955916;28;20054;-76
2023/10/10 14:33:39;;;;;;;49.10;24.17;;;20.40;99.90;;;;;;4955125;28;20054;-74
2023/10/10 14:36:26;;;;;;;38.15;23.75;;;20.40;99.90;;;;;;4955551;28;20142;-73
2023/10/10 14:42:17;;;;;;;40.42;24.58;;;20.30;99.90;;;;;;4955166;28;20062;-74
2023/10/10 14:45:06;;;;;;;38.20;23.80;;;20.30;99.90;;;;;;4954841;28;20053;-78
2023/10/10 14:47:52;;;;;;;39.35;23.65;;;20.50;99.90;;;;;;4972128;28;20496;-74
2023/10/10 14:50:39;;;;;;;41.75;24.88;;;20.80;99.90;;;;;;4954800;28;20058;-76
2023/10/10 14:53:25;;;;;;;42.78;26.55;;;21.20;99.90;;;;;;4955035;28;20047;-75
2023/10/10 14:56:15;;;;;;;44.10;26.50;;;21.20;99.90;;;;;;4942736;28;20380;-77
2023/10/10 14:59:04;;;;;;;52.00;28.75;;;21.20;99.90;;;;;;4955471;28;20074;-75
2023/10/10 15:01:51;;;;;;;43.50;28.15;;;21.20;99.90;;;;;;4954781;28;20050;-80
2023/10/10 15:04:38;;;;;;;38.42;28.25;;;21.00;99.90;;;;;;4954151;28;20571;-76
2023/10/10 15:07:27;;;;;;;45.13;28.85;;;20.90;99.90;;;;;;4942104;28;20835;-77
2023/10/10 15:10:13;;;;;;;49.92;31.05;;;20.70;99.90;;;;;;4955144;28;20065;-74
2023/10/10 15:12:59;;;;;;;46.42;28.10;;;20.40;99.90;;;;;;4955384;28;20101;-84
2023/10/10 15:15:46;;;;;;;46.92;30.77;;;20.40;99.90;;;;;;4954885;28;20058;-77
2023/10/10 15:18:32;;;;;;;55.25;32.63;;;20.20;99.90;;;;;;4953749;28;20054;-73
2023/10/10 15:21:19;;;;;;;50.95;29.70;;;20.10;99.90;;;;;;4955100;28;20411;-73
2023/10/10 15:24:12;;;;;;;49.03;30.27;;;20.10;99.90;;;;;;4954611;28;20055;-73
2023/10/10 15:26:59;;;;;;;45.95;28.70;;;20.00;99.90;;;;;;4954779;28;20133;-76
2023/10/10 15:29:45;;;;;;;44.90;29.35;;;19.90;99.90;;;;;;4954304;28;20503;-75
2023/10/10 15:32:39;;;;;;;51.22;31.13;;;19.90;99.90;;;;;;4943032;28;20110;-72
2023/10/10 15:35:28;;;;;;;50.42;30.55;;;19.80;99.90;;;;;;4959442;28;20137;-74
2023/10/10 15:38:14;;;;;;;49.80;30.77;;;19.80;99.90;;;;;;4957988;28;20062;-76
2023/10/10 15:41:25;;;;;;;48.08;28.92;;;19.70;99.90;;;;;;4975577;28;20067;-78
2023/10/10 15:44:12;;;;;;;47.17;28.90;;;19.70;99.90;;;;;;4959558;28;20121;-75
2023/10/10 15:46:58;;;;;;;46.33;28.15;;;19.60;99.90;;;;;;4959687;28;20073;-75
2023/10/10 15:49:46;;;;;;;49.70;29.02;;;19.60;99.90;;;;;;4961180;28;20061;-75
2023/10/10 15:52:33;;;;;;;49.15;29.60;;;19.60;99.90;;;;;;4965001;28;20058;-74
2023/10/10 15:55:23;;;;;;;50.00;27.63;;;19.50;99.90;;;;;;4963493;28;20049;-76
2023/10/10 15:58:09;;;;;;;46.38;27.83;;;19.50;99.90;;;;;;4952139;28;20039;-73
2023/10/10 16:00:57;;;;;;;43.70;27.63;;;19.40;99.90;;;;;;4962183;28;20055;-75
2023/10/10 16:03:51;;;;;;;44.47;26.77;;;19.30;99.90;;;;;;4959157;28;20050;-74
2023/10/10 16:06:38;;;;;;;41.38;27.63;;;19.20;99.90;;;;;;4958368;28;20526;-83
2023/10/10 16:09:30;;;;;;;38.65;25.92;;;19.20;99.90;;;;;;4974910;28;20121;-74
2023/10/10 16:12:16;;;;;;;42.00;25.25;;;19.20;99.90;;;;;;4958263;28;20411;-73
2023/10/10 16:15:05;;;;;;;40.25;24.95;;;19.10;99.90;;;;;;4957010;28;20495;-73
2023/10/10 16:17:51;;;;;;;38.53;25.15;;;19.10;99.90;;;;;;4944463;28;20507;-74
2023/10/10 16:20:37;;;;;;;41.45;24.75;;;19.00;99.90;;;;;;4957493;28;20051;-73
2023/10/10 16:23:24;;;;;;;40.95;24.25;;;19.00;99.90;;;;;;4944896;28;20193;-73
2023/10/10 16:26:12;;;;;;;40.72;23.90;;;19.00;99.90;;;;;;4931904;28;20070;-75
2023/10/10 16:28:57;;;;;;;40.63;24.15;;;18.90;99.90;;;;;;4975013;28;20455;-74
2023/10/10 16:31:43;;;;;;;43.58;25.42;;;18.90;99.90;;;;;;4974421;28;20145;-75
2023/10/10 16:34:32;;;;;;;41.15;23.88;;;18.90;99.90;;;;;;4974244;28;20051;-75
2023/10/10 16:37:20;;;;;;;42.22;26.05;;;18.90;99.90;;;;;;4943139;28;20162;-73
2023/10/10 16:40:08;;;;;;;41.42;24.98;;;18.80;99.90;;;;;;4974642;28;20190;-74
2023/10/10 16:42:56;;;;;;;41.13;24.63;;;18.80;99.90;;;;;;4975129;28;20468;-73
2023/10/10 16:45:43;;;;;;;37.63;23.63;;;18.70;99.90;;;;;;4957755;28;20118;-73
2023/10/10 16:48:31;;;;;;;45.85;26.15;;;18.70;99.90;;;;;;4957302;28;20512;-73
2023/10/10 16:51:20;;;;;;;39.72;25.08;;;18.70;99.90;;;;;;4975485;28;20051;-73
2023/10/10 16:54:06;;;;;;;37.40;23.50;;;18.60;99.90;;;;;;4957834;28;20043;-73